sensor_id;sensor_type;location;lat;lon;timestamp;pressure;altitude;pressure_sealevel;temperature;humidity
2036;BME280;23642;42.658;23.350;2023-04-03T00:02:07;53853.53;;;-146.31;86.57
2036;BME280;23642;42.658;23.350;2023-04-03T00:04:34;53843.22;;;-146.31;87.50
2036;BME280;23642;42.658;23.350;2023-04-03T00:07:01;53750.31;;;-146.31;88.71
2036;BME280;23642;42.658;23.350;2023-04-03T00:09:28;53661.53;;;-146.31;89.49
2036;BME280;23642;42.658;23.350;2023-04-03T00:11:54;53593.41;;;-146.31;89.78
2036;BME280;23642;42.658;23.350;2023-04-03T00:14:21;53574.84;;;-146.31;89.83
2036;BME280;23642;42.658;23.350;2023-04-03T00:16:50;53539.75;;;-146.31;90.69
2036;BME280;23642;42.658;23.350;2023-04-03T00:19:18;53442.72;;;-146.31;90.54
2036;BME280;23642;42.658;23.350;2023-04-03T00:21:48;53459.25;;;-146.31;90.04
2036;BME280;23642;42.658;23.350;2023-04-03T00:24:14;53420.03;;;-146.31;90.59
2036;BME280;23642;42.658;23.350;2023-04-03T00:26:41;53358.09;;;-146.31;91.69
2036;BME280;23642;42.658;23.350;2023-04-03T00:29:08;53275.53;;;-146.31;91.76
2036;BME280;23642;42.658;23.350;2023-04-03T00:31:35;53209.47;;;-146.31;91.97
2036;BME280;23642;42.658;23.350;2023-04-03T00:34:02;53155.81;;;-146.31;92.08
2036;BME280;23642;42.658;23.350;2023-04-03T00:36:30;53118.66;;;-146.31;92.13
2036;BME280;23642;42.658;23.350;2023-04-03T00:38:57;53089.75;;;-146.31;92.49
2036;BME280;23642;42.658;23.350;2023-04-03T00:41:24;53007.22;;;-146.31;92.98
2036;BME280;23642;42.658;23.350;2023-04-03T00:43:52;52887.50;;;-146.31;92.84
2036;BME280;23642;42.658;23.350;2023-04-03T00:46:20;52833.84;;;-146.31;93.46
2036;BME280;23642;42.658;23.350;2023-04-03T00:48:48;52738.91;;;-146.31;93.08
2036;BME280;23642;42.658;23.350;2023-04-03T00:51:18;52722.41;;;-146.31;92.94
2036;BME280;23642;42.658;23.350;2023-04-03T00:53:50;52664.59;;;-146.31;93.36
2036;BME280;23642;42.658;23.350;2023-04-03T00:56:21;52575.88;;;-146.31;93.69
2036;BME280;23642;42.658;23.350;2023-04-03T00:58:54;52532.53;;;-146.31;93.47
2036;BME280;23642;42.658;23.350;2023-04-03T01:01:25;52524.28;;;-146.31;93.14
2036;BME280;23642;42.658;23.350;2023-04-03T01:03:53;52441.72;;;-146.31;93.43
2036;BME280;23642;42.658;23.350;2023-04-03T01:06:23;52350.94;;;-146.31;94.19
2036;BME280;23642;42.658;23.350;2023-04-03T01:08:53;52309.66;;;-146.31;93.84
2036;BME280;23642;42.658;23.350;2023-04-03T01:11:21;52204.41;;;-146.31;94.31
2036;BME280;23642;42.658;23.350;2023-04-03T01:13:48;52140.44;;;-146.31;93.83
2036;BME280;23642;42.658;23.350;2023-04-03T01:16:15;52165.22;;;-146.31;93.32
2036;BME280;23642;42.658;23.350;2023-04-03T01:18:42;52169.34;;;-146.31;93.14
2036;BME280;23642;42.658;23.350;2023-04-03T01:24:25;52006.34;;;-146.31;94.29
2036;BME280;23642;42.658;23.350;2023-04-03T01:26:54;51919.69;;;-146.31;94.78
2036;BME280;23642;42.658;23.350;2023-04-03T01:29:21;51713.34;;;-146.31;95.00
2036;BME280;23642;42.658;23.350;2023-04-03T01:31:51;51707.16;;;-146.31;94.49
2036;BME280;23642;42.658;23.350;2023-04-03T01:34:18;51752.56;;;-146.31;93.87
2036;BME280;23642;42.658;23.350;2023-04-03T01:36:45;51808.25;;;-146.31;93.63
2036;BME280;23642;42.658;23.350;2023-04-03T01:39:12;51789.69;;;-146.31;93.30
2036;BME280;23642;42.658;23.350;2023-04-03T01:41:39;51925.88;;;-146.31;92.29
2036;BME280;23642;42.658;23.350;2023-04-03T01:44:06;51993.94;;;-146.31;90.84
2036;BME280;23642;42.658;23.350;2023-04-03T01:46:34;52072.38;;;-146.31;91.24
2036;BME280;23642;42.658;23.350;2023-04-03T01:49:02;52080.63;;;-146.31;90.89
2036;BME280;23642;42.658;23.350;2023-04-03T01:51:30;52082.69;;;-146.31;90.85
2036;BME280;23642;42.658;23.350;2023-04-03T01:53:57;52103.31;;;-146.31;90.97
2036;BME280;23642;42.658;23.350;2023-04-03T01:56:23;52068.22;;;-146.31;91.24
2036;BME280;23642;42.658;23.350;2023-04-03T01:58:50;52059.97;;;-146.31;91.73
2036;BME280;23642;42.658;23.350;2023-04-03T02:01:18;52010.47;;;-146.31;92.40
2036;BME280;23642;42.658;23.350;2023-04-03T02:03:44;51965.06;;;-146.31;92.19
2036;BME280;23642;42.658;23.350;2023-04-03T02:06:12;51996.03;;;-146.31;92.07
2036;BME280;23642;42.658;23.350;2023-04-03T02:08:39;51998.09;;;-146.31;92.23
2036;BME280;23642;42.658;23.350;2023-04-03T02:11:07;51977.44;;;-146.31;93.20
2036;BME280;23642;42.658;23.350;2023-04-03T02:13:33;51802.06;;;-146.31;94.59
2036;BME280;23642;42.658;23.350;2023-04-03T02:16:06;51591.63;;;-146.31;95.53
2036;BME280;23642;42.658;23.350;2023-04-03T02:18:34;51370.88;;;-146.31;95.55
2036;BME280;23642;42.658;23.350;2023-04-03T02:21:00;51292.50;;;-146.31;95.44
2036;BME280;23642;42.658;23.350;2023-04-03T02:23:29;51397.69;;;-146.31;94.14
2036;BME280;23642;42.658;23.350;2023-04-03T02:26:03;51525.59;;;-146.31;92.86
2036;BME280;23642;42.658;23.350;2023-04-03T02:28:31;51632.88;;;-146.31;92.23
2036;BME280;23642;42.658;23.350;2023-04-03T02:30:58;51630.81;;;-146.31;92.95
2036;BME280;23642;42.658;23.350;2023-04-03T02:33:25;51571.00;;;-146.31;93.79
2036;BME280;23642;42.658;23.350;2023-04-03T02:35:53;51434.84;;;-146.31;94.54
2036;BME280;23642;42.658;23.350;2023-04-03T02:38:22;51232.66;;;-146.31;95.92
2036;BME280;23642;42.658;23.350;2023-04-03T02:40:50;51030.50;;;-146.31;96.24
2036;BME280;23642;42.658;23.350;2023-04-03T02:43:18;50799.50;;;-146.31;97.01
2036;BME280;23642;42.658;23.350;2023-04-03T02:45:45;50568.50;;;-146.31;97.80
2036;BME280;23642;42.658;23.350;2023-04-03T02:48:11;50306.56;;;-146.31;97.91
2036;BME280;23642;42.658;23.350;2023-04-03T02:50:40;50182.81;;;-146.31;97.68
2036;BME280;23642;42.658;23.350;2023-04-03T02:53:06;50201.38;;;-146.31;97.41
2036;BME280;23642;42.658;23.350;2023-04-03T02:55:33;50145.72;;;-146.31;97.35
2036;BME280;23642;42.658;23.350;2023-04-03T02:58:02;50059.09;;;-146.31;98.08
2036;BME280;23642;42.658;23.350;2023-04-03T03:00:29;49984.84;;;-146.31;97.94
2036;BME280;23642;42.658;23.350;2023-04-03T03:02:56;49875.56;;;-146.31;98.01
2036;BME280;23642;42.658;23.350;2023-04-03T03:05:23;49755.97;;;-146.31;98.89
2036;BME280;23642;42.658;23.350;2023-04-03T03:07:50;49578.66;;;-146.31;98.89
2036;BME280;23642;42.658;23.350;2023-04-03T03:10:17;49504.41;;;-146.31;98.41
2036;BME280;23642;42.658;23.350;2023-04-03T03:12:44;49475.56;;;-146.31;98.62
2036;BME280;23642;42.658;23.350;2023-04-03T03:15:13;49407.50;;;-146.31;98.67
2036;BME280;23642;42.658;23.350;2023-04-03T03:17:41;49370.41;;;-146.31;99.07
2036;BME280;23642;42.658;23.350;2023-04-03T03:20:08;49259.06;;;-146.31;99.31
2036;BME280;23642;42.658;23.350;2023-04-03T03:22:36;49164.25;;;-146.31;99.19
2036;BME280;23642;42.658;23.350;2023-04-03T03:25:04;49153.94;;;-146.31;99.04
2036;BME280;23642;42.658;23.350;2023-04-03T03:27:31;49100.31;;;-146.31;99.51
2036;BME280;23642;42.658;23.350;2023-04-03T03:29:58;49069.41;;;-146.31;99.56
2036;BME280;23642;42.658;23.350;2023-04-03T03:32:26;48982.81;;;-146.31;99.49
2036;BME280;23642;42.658;23.350;2023-04-03T03:34:53;48877.69;;;-146.31;100.00
2036;BME280;23642;42.658;23.350;2023-04-03T03:37:20;48805.53;;;-146.31;100.00
2036;BME280;23642;42.658;23.350;2023-04-03T03:39:47;48762.25;;;-146.31;99.96
2036;BME280;23642;42.658;23.350;2023-04-03T03:42:13;48762.25;;;-146.31;99.73
2036;BME280;23642;42.658;23.350;2023-04-03T03:44:41;48995.19;;;-146.31;98.45
2036;BME280;23642;42.658;23.350;2023-04-03T03:47:08;49026.13;;;-146.31;98.89
2036;BME280;23642;42.658;23.350;2023-04-03T03:49:37;48978.69;;;-146.31;99.43
2036;BME280;23642;42.658;23.350;2023-04-03T03:52:04;48894.19;;;-146.31;99.14
2036;BME280;23642;42.658;23.350;2023-04-03T03:54:31;48885.94;;;-146.31;99.25
2036;BME280;23642;42.658;23.350;2023-04-03T03:56:58;48879.75;;;-146.31;99.44
2036;BME280;23642;42.658;23.350;2023-04-03T03:59:25;48840.56;;;-146.31;99.24
2036;BME280;23642;42.658;23.350;2023-04-03T04:01:52;48844.69;;;-146.31;99.14
2036;BME280;23642;42.658;23.350;2023-04-03T04:04:19;48838.53;;;-146.31;99.84
2036;BME280;23642;42.658;23.350;2023-04-03T04:06:47;48875.63;;;-146.31;98.99
2036;BME280;23642;42.658;23.350;2023-04-03T04:09:13;48877.69;;;-146.31;99.61
2036;BME280;23642;42.658;23.350;2023-04-03T04:11:40;48852.94;;;-146.31;99.55
2036;BME280;23642;42.658;23.350;2023-04-03T04:14:07;48824.09;;;-146.31;99.91
2036;BME280;23642;42.658;23.350;2023-04-03T04:16:35;48770.50;;;-146.31;99.92
2036;BME280;23642;42.658;23.350;2023-04-03T04:19:02;48725.13;;;-146.31;99.15
2036;BME280;23642;42.658;23.350;2023-04-03T04:21:29;48836.47;;;-146.31;99.54
2036;BME280;23642;42.658;23.350;2023-04-03T04:23:57;48857.06;;;-146.31;98.85
2036;BME280;23642;42.658;23.350;2023-04-03T04:26:24;48935.41;;;-146.31;98.45
2036;BME280;23642;42.658;23.350;2023-04-03T04:28:51;48982.81;;;-146.31;98.11
2036;BME280;23642;42.658;23.350;2023-04-03T04:31:18;49259.06;;;-146.31;96.00
2036;BME280;23642;42.658;23.350;2023-04-03T04:33:45;49570.41;;;-146.31;94.66
2036;BME280;23642;42.658;23.350;2023-04-03T04:36:12;49617.81;;;-146.31;94.66
2036;BME280;23642;42.658;23.350;2023-04-03T04:38:40;49586.91;;;-146.31;95.77
2036;BME280;23642;42.658;23.350;2023-04-03T04:41:08;49490.00;;;-146.31;96.31
2036;BME280;23642;42.658;23.350;2023-04-03T04:43:36;49483.81;;;-146.31;95.99
2036;BME280;23642;42.658;23.350;2023-04-03T04:46:05;49661.13;;;-146.31;94.56
2036;BME280;23642;42.658;23.350;2023-04-03T04:48:32;49679.69;;;-146.31;94.40
2036;BME280;23642;42.658;23.350;2023-04-03T04:50:59;49714.72;;;-146.31;94.59
2036;BME280;23642;42.658;23.350;2023-04-03T04:53:29;49710.59;;;-146.31;94.96
2036;BME280;23642;42.658;23.350;2023-04-03T04:55:56;49751.84;;;-146.31;94.46
2036;BME280;23642;42.658;23.350;2023-04-03T04:58:26;49762.16;;;-146.31;94.12
2036;BME280;23642;42.658;23.350;2023-04-03T05:00:58;49803.41;;;-146.31;93.86
2036;BME280;23642;42.658;23.350;2023-04-03T05:03:25;49852.88;;;-146.31;93.71
2036;BME280;23642;42.658;23.350;2023-04-03T05:05:52;49974.53;;;-146.31;92.29
2036;BME280;23642;42.658;23.350;2023-04-03T05:08:19;50125.09;;;-146.31;91.16
2036;BME280;23642;42.658;23.350;2023-04-03T05:10:46;50296.25;;;-146.31;89.89
2036;BME280;23642;42.658;23.350;2023-04-03T05:13:13;50333.38;;;-146.31;90.27
2036;BME280;23642;42.658;23.350;2023-04-03T05:15:42;50391.13;;;-146.31;89.17
2036;BME280;23642;42.658;23.350;2023-04-03T05:18:09;50558.19;;;-146.31;88.24
2036;BME280;23642;42.658;23.350;2023-04-03T05:20:35;50671.63;;;-146.31;87.21
2036;BME280;23642;42.658;23.350;2023-04-03T05:23:05;50690.19;;;-146.31;87.47
2036;BME280;23642;42.658;23.350;2023-04-03T05:25:34;50766.50;;;-146.31;86.52
2036;BME280;23642;42.658;23.350;2023-04-03T05:28:01;50902.63;;;-146.31;85.48
2036;BME280;23642;42.658;23.350;2023-04-03T05:30:27;50976.88;;;-146.31;85.65
2036;BME280;23642;42.658;23.350;2023-04-03T05:32:55;51040.81;;;-146.31;85.12
2036;BME280;23642;42.658;23.350;2023-04-03T05:35:22;51082.09;;;-146.31;85.07
2036;BME280;23642;42.658;23.350;2023-04-03T05:37:49;51139.84;;;-146.31;84.69
2036;BME280;23642;42.658;23.350;2023-04-03T05:40:16;51143.97;;;-146.31;84.62
2036;BME280;23642;42.658;23.350;2023-04-03T05:42:44;51242.97;;;-146.31;83.71
2036;BME280;23642;42.658;23.350;2023-04-03T05:45:11;51348.19;;;-146.31;83.37
2036;BME280;23642;42.658;23.350;2023-04-03T05:47:38;51323.44;;;-146.31;82.86
2036;BME280;23642;42.658;23.350;2023-04-03T05:50:09;51438.97;;;-146.31;81.73
2036;BME280;23642;42.658;23.350;2023-04-03T05:52:38;51498.78;;;-146.31;81.74
2036;BME280;23642;42.658;23.350;2023-04-03T05:55:07;51564.81;;;-146.31;80.81
2036;BME280;23642;42.658;23.350;2023-04-03T05:57:35;51639.06;;;-146.31;81.27
2036;BME280;23642;42.658;23.350;2023-04-03T06:00:02;51657.66;;;-146.31;80.70
2036;BME280;23642;42.658;23.350;2023-04-03T06:02:31;51727.78;;;-146.31;79.00
2036;BME280;23642;42.658;23.350;2023-04-03T06:04:58;51775.25;;;-146.31;78.93
2036;BME280;23642;42.658;23.350;2023-04-03T06:07:26;51785.56;;;-146.31;79.67
2036;BME280;23642;42.658;23.350;2023-04-03T06:09:55;51818.56;;;-146.31;78.65
2036;BME280;23642;42.658;23.350;2023-04-03T06:12:23;51884.59;;;-146.31;78.87
2036;BME280;23642;42.658;23.350;2023-04-03T06:14:50;51934.13;;;-146.31;77.35
2036;BME280;23642;42.658;23.350;2023-04-03T06:17:16;51983.63;;;-146.31;76.76
2036;BME280;23642;42.658;23.350;2023-04-03T06:19:46;52086.81;;;-146.31;76.96
2036;BME280;23642;42.658;23.350;2023-04-03T06:22:13;52078.56;;;-146.31;76.50
2036;BME280;23642;42.658;23.350;2023-04-03T06:24:42;52121.88;;;-146.31;75.97
2036;BME280;23642;42.658;23.350;2023-04-03T06:27:09;52156.97;;;-146.31;75.17
2036;BME280;23642;42.658;23.350;2023-04-03T06:29:37;52179.66;;;-146.31;75.20
2036;BME280;23642;42.658;23.350;2023-04-03T06:32:04;52227.13;;;-146.31;73.48
2036;BME280;23642;42.658;23.350;2023-04-03T06:34:33;52289.03;;;-146.31;73.55
2036;BME280;23642;42.658;23.350;2023-04-03T06:37:00;52311.72;;;-146.31;72.25
2036;BME280;23642;42.658;23.350;2023-04-03T06:39:27;52390.13;;;-146.31;71.43
2036;BME280;23642;42.658;23.350;2023-04-03T06:41:59;52487.13;;;-146.31;72.15
2036;BME280;23642;42.658;23.350;2023-04-03T06:44:26;52431.41;;;-146.31;73.40
2036;BME280;23642;42.658;23.350;2023-04-03T06:46:52;52435.53;;;-146.31;71.80
2036;BME280;23642;42.658;23.350;2023-04-03T06:49:19;52542.84;;;-146.31;71.25
2036;BME280;23642;42.658;23.350;2023-04-03T06:51:46;52582.06;;;-146.31;71.02
2036;BME280;23642;42.658;23.350;2023-04-03T06:54:13;52617.13;;;-146.31;70.38
2036;BME280;23642;42.658;23.350;2023-04-03T06:56:40;52571.75;;;-146.31;70.40
2036;BME280;23642;42.658;23.350;2023-04-03T06:59:09;52615.06;;;-146.31;70.91
2036;BME280;23642;42.658;23.350;2023-04-03T07:01:37;52615.06;;;-146.31;70.48
2036;BME280;23642;42.658;23.350;2023-04-03T07:04:04;52656.34;;;-146.31;69.60
2036;BME280;23642;42.658;23.350;2023-04-03T07:06:31;52664.59;;;-146.31;70.37
2036;BME280;23642;42.658;23.350;2023-04-03T07:09:00;52755.41;;;-146.31;72.00
2036;BME280;23642;42.658;23.350;2023-04-03T07:11:27;52716.19;;;-146.31;71.55
2036;BME280;23642;42.658;23.350;2023-04-03T07:13:58;52672.84;;;-146.31;69.94
2036;BME280;23642;42.658;23.350;2023-04-03T07:16:26;52722.41;;;-146.31;69.42
2036;BME280;23642;42.658;23.350;2023-04-03T07:18:53;52743.03;;;-146.31;69.18
2036;BME280;23642;42.658;23.350;2023-04-03T07:21:23;52730.66;;;-146.31;68.65
2036;BME280;23642;42.658;23.350;2023-04-03T07:23:51;52776.06;;;-146.31;67.73
2036;BME280;23642;42.658;23.350;2023-04-03T07:26:20;52780.19;;;-146.31;66.30
2036;BME280;23642;42.658;23.350;2023-04-03T07:28:47;52881.31;;;-146.31;67.35
2036;BME280;23642;42.658;23.350;2023-04-03T07:31:16;52827.66;;;-146.31;67.69
2036;BME280;23642;42.658;23.350;2023-04-03T07:33:47;52871.00;;;-146.31;68.15
2036;BME280;23642;42.658;23.350;2023-04-03T07:36:16;52889.56;;;-146.31;68.11
2036;BME280;23642;42.658;23.350;2023-04-03T07:38:43;52846.22;;;-146.31;67.13
2036;BME280;23642;42.658;23.350;2023-04-03T07:41:12;52887.50;;;-146.31;65.89
2036;BME280;23642;42.658;23.350;2023-04-03T07:43:40;52965.94;;;-146.31;65.54
2036;BME280;23642;42.658;23.350;2023-04-03T07:46:07;53013.41;;;-146.31;67.35
2036;BME280;23642;42.658;23.350;2023-04-03T07:48:34;52953.53;;;-146.31;67.56
2036;BME280;23642;42.658;23.350;2023-04-03T07:51:04;52986.56;;;-146.31;66.47
2036;BME280;23642;42.658;23.350;2023-04-03T07:53:32;52965.94;;;-146.31;67.38
2036;BME280;23642;42.658;23.350;2023-04-03T07:56:00;53003.06;;;-146.31;66.41
2036;BME280;23642;42.658;23.350;2023-04-03T07:58:32;53023.72;;;-146.31;66.38
2036;BME280;23642;42.658;23.350;2023-04-03T08:01:03;52957.66;;;-146.31;66.60
2036;BME280;23642;42.658;23.350;2023-04-03T08:03:34;52998.94;;;-146.31;66.23
2036;BME280;23642;42.658;23.350;2023-04-03T08:06:05;53079.44;;;-146.31;68.22
2036;BME280;23642;42.658;23.350;2023-04-03T08:08:33;53083.56;;;-146.31;69.68
2036;BME280;23642;42.658;23.350;2023-04-03T08:11:01;53040.22;;;-146.31;68.44
2036;BME280;23642;42.658;23.350;2023-04-03T08:13:32;53013.41;;;-146.31;67.85
2036;BME280;23642;42.658;23.350;2023-04-03T08:16:08;53062.94;;;-146.31;67.89
2036;BME280;23642;42.658;23.350;2023-04-03T08:18:37;53027.84;;;-146.31;68.30
2036;BME280;23642;42.658;23.350;2023-04-03T08:21:13;52968.00;;;-146.31;67.09
2036;BME280;23642;42.658;23.350;2023-04-03T08:23:43;52912.25;;;-146.31;65.21
2036;BME280;23642;42.658;23.350;2023-04-03T08:26:11;52906.06;;;-146.31;64.10
2036;BME280;23642;42.658;23.350;2023-04-03T08:28:39;52968.00;;;-146.31;60.58
2036;BME280;23642;42.658;23.350;2023-04-03T08:31:07;53052.63;;;-146.31;61.08
2036;BME280;23642;42.658;23.350;2023-04-03T08:33:38;53023.72;;;-146.31;58.74
2036;BME280;23642;42.658;23.350;2023-04-03T08:36:06;53046.41;;;-146.31;58.32
2036;BME280;23642;42.658;23.350;2023-04-03T08:38:36;53065.00;;;-146.31;56.89
2036;BME280;23642;42.658;23.350;2023-04-03T08:41:10;53019.59;;;-146.31;56.70
2036;BME280;23642;42.658;23.350;2023-04-03T08:43:56;53089.75;;;-146.31;57.04
2036;BME280;23642;42.658;23.350;2023-04-03T08:46:37;53019.59;;;-146.31;55.13
2036;BME280;23642;42.658;23.350;2023-04-03T08:49:10;53044.34;;;-146.31;54.41
2036;BME280;23642;42.658;23.350;2023-04-03T08:51:46;53046.41;;;-146.31;54.88
2036;BME280;23642;42.658;23.350;2023-04-03T08:54:22;53135.19;;;-146.31;54.08
2036;BME280;23642;42.658;23.350;2023-04-03T08:56:54;53009.28;;;-146.31;52.69
2036;BME280;23642;42.658;23.350;2023-04-03T08:59:27;53139.31;;;-146.31;52.96
2036;BME280;23642;42.658;23.350;2023-04-03T09:01:57;53137.25;;;-146.31;52.32
2036;BME280;23642;42.658;23.350;2023-04-03T09:04:28;53106.28;;;-146.31;51.87
2036;BME280;23642;42.658;23.350;2023-04-03T09:07:05;53147.56;;;-146.31;52.46
2036;BME280;23642;42.658;23.350;2023-04-03T09:09:41;53207.41;;;-146.31;52.12
2036;BME280;23642;42.658;23.350;2023-04-03T09:12:16;53195.03;;;-146.31;52.08
2036;BME280;23642;42.658;23.350;2023-04-03T09:14:55;53201.22;;;-146.31;52.34
2036;BME280;23642;42.658;23.350;2023-04-03T09:17:35;53164.06;;;-146.31;51.67
2036;BME280;23642;42.658;23.350;2023-04-03T09:20:17;53137.25;;;-146.31;50.66
2036;BME280;23642;42.658;23.350;2023-04-03T09:22:47;53201.22;;;-146.31;50.61
2036;BME280;23642;42.658;23.350;2023-04-03T09:25:19;53275.53;;;-146.31;50.85
2036;BME280;23642;42.658;23.350;2023-04-03T09:27:47;53279.66;;;-146.31;50.42
2036;BME280;23642;42.658;23.350;2023-04-03T09:30:19;53325.06;;;-146.31;49.66
2036;BME280;23642;42.658;23.350;2023-04-03T09:32:47;53391.13;;;-146.31;50.07
2036;BME280;23642;42.658;23.350;2023-04-03T09:35:21;53356.03;;;-146.31;50.38
2036;BME280;23642;42.658;23.350;2023-04-03T09:37:50;53374.59;;;-146.31;49.66
2036;BME280;23642;42.658;23.350;2023-04-03T09:40:36;53356.03;;;-146.31;50.24
2036;BME280;23642;42.658;23.350;2023-04-03T09:43:25;53308.56;;;-146.31;49.29
2036;BME280;23642;42.658;23.350;2023-04-03T09:45:53;53341.59;;;-146.31;47.98
2036;BME280;23642;42.658;23.350;2023-04-03T09:48:21;53432.41;;;-146.31;48.61
2036;BME280;23642;42.658;23.350;2023-04-03T09:50:59;53420.03;;;-146.31;47.83
2036;BME280;23642;42.658;23.350;2023-04-03T09:53:34;53362.22;;;-146.31;46.58
2036;BME280;23642;42.658;23.350;2023-04-03T09:56:17;53508.78;;;-146.31;46.92
2036;BME280;23642;42.658;23.350;2023-04-03T09:58:47;53477.81;;;-146.31;46.78
2036;BME280;23642;42.658;23.350;2023-04-03T10:01:23;53614.06;;;-146.31;47.78
2036;BME280;23642;42.658;23.350;2023-04-03T10:04:04;53570.72;;;-146.31;47.92
2036;BME280;23642;42.658;23.350;2023-04-03T10:06:33;53564.53;;;-146.31;47.25
2036;BME280;23642;42.658;23.350;2023-04-03T10:09:04;53605.81;;;-146.31;46.64
2036;BME280;23642;42.658;23.350;2023-04-03T10:11:33;53659.47;;;-146.31;47.30
2036;BME280;23642;42.658;23.350;2023-04-03T10:14:02;53692.50;;;-146.31;48.47
2036;BME280;23642;42.658;23.350;2023-04-03T10:16:35;53729.66;;;-146.31;49.90
2036;BME280;23642;42.658;23.350;2023-04-03T10:19:15;53760.63;;;-146.31;51.71
2036;BME280;23642;42.658;23.350;2023-04-03T10:21:46;53758.56;;;-146.31;51.72
2036;BME280;23642;42.658;23.350;2023-04-03T10:24:19;53698.69;;;-146.31;51.41
2036;BME280;23642;42.658;23.350;2023-04-03T10:26:54;53696.63;;;-146.31;50.94
2036;BME280;23642;42.658;23.350;2023-04-03T10:29:42;53729.66;;;-146.31;50.53
2036;BME280;23642;42.658;23.350;2023-04-03T10:32:43;53723.47;;;-146.31;50.83
2036;BME280;23642;42.658;23.350;2023-04-03T10:35:18;53742.06;;;-146.31;50.30
2036;BME280;23642;42.658;23.350;2023-04-03T10:37:58;53715.22;;;-146.31;50.15
2036;BME280;23642;42.658;23.350;2023-04-03T10:40:31;53715.22;;;-146.31;50.56
2036;BME280;23642;42.658;23.350;2023-04-03T10:43:08;53680.13;;;-146.31;49.60
2036;BME280;23642;42.658;23.350;2023-04-03T10:45:53;53655.34;;;-146.31;50.16
2036;BME280;23642;42.658;23.350;2023-04-03T10:48:32;53680.13;;;-146.31;50.15
2036;BME280;23642;42.658;23.350;2023-04-03T10:51:14;53696.63;;;-146.31;50.45
2036;BME280;23642;42.658;23.350;2023-04-03T10:53:49;53735.88;;;-146.31;51.09
2036;BME280;23642;42.658;23.350;2023-04-03T10:56:24;53733.78;;;-146.31;50.68
2036;BME280;23642;42.658;23.350;2023-04-03T10:59:00;53733.78;;;-146.31;51.57
2036;BME280;23642;42.658;23.350;2023-04-03T11:01:32;53696.63;;;-146.31;54.57
2036;BME280;23642;42.658;23.350;2023-04-03T11:04:02;53669.81;;;-146.31;56.01
2036;BME280;23642;42.658;23.350;2023-04-03T11:06:37;53630.56;;;-146.31;57.33
2036;BME280;23642;42.658;23.350;2023-04-03T11:09:16;53638.84;;;-146.31;58.96
2036;BME280;23642;42.658;23.350;2023-04-03T11:11:49;53560.41;;;-146.31;63.15
2036;BME280;23642;42.658;23.350;2023-04-03T11:14:28;53477.81;;;-146.31;65.29
2036;BME280;23642;42.658;23.350;2023-04-03T11:17:11;53428.28;;;-146.31;67.55
2036;BME280;23642;42.658;23.350;2023-04-03T11:19:47;53360.16;;;-146.31;69.42
2036;BME280;23642;42.658;23.350;2023-04-03T11:22:22;53353.97;;;-146.31;69.60
2036;BME280;23642;42.658;23.350;2023-04-03T11:24:58;53333.31;;;-146.31;71.03
2036;BME280;23642;42.658;23.350;2023-04-03T11:27:35;53296.16;;;-146.31;71.76
2036;BME280;23642;42.658;23.350;2023-04-03T11:30:12;53273.47;;;-146.31;72.12
2036;BME280;23642;42.658;23.350;2023-04-03T11:32:58;53143.44;;;-146.31;75.08
2036;BME280;23642;42.658;23.350;2023-04-03T11:35:29;53102.16;;;-146.31;75.07
2036;BME280;23642;42.658;23.350;2023-04-03T11:37:57;53065.00;;;-146.31;75.87
2036;BME280;23642;42.658;23.350;2023-04-03T11:40:29;52930.84;;;-146.31;78.27
2036;BME280;23642;42.658;23.350;2023-04-03T11:43:05;52879.25;;;-146.31;78.53
2036;BME280;23642;42.658;23.350;2023-04-03T11:45:46;52813.19;;;-146.31;79.34
2036;BME280;23642;42.658;23.350;2023-04-03T11:48:50;52763.66;;;-146.31;81.42
2036;BME280;23642;42.658;23.350;2023-04-03T11:51:45;52697.63;;;-146.31;83.83
2036;BME280;23642;42.658;23.350;2023-04-03T11:54:44;52526.34;;;-146.31;87.22
2036;BME280;23642;42.658;23.350;2023-04-03T11:57:44;52392.19;;;-146.31;90.24
2036;BME280;23642;42.658;23.350;2023-04-03T12:00:49;52280.78;;;-146.31;91.34
2036;BME280;23642;42.658;23.350;2023-04-03T12:09:32;51426.59;;;-146.31;96.27
2036;BME280;23642;42.658;23.350;2023-04-03T12:12:01;50989.25;;;-146.31;97.19
2036;BME280;23642;42.658;23.350;2023-04-03T12:14:51;50585.00;;;-146.31;97.63
2036;BME280;23642;42.658;23.350;2023-04-03T12:17:23;50222.00;;;-146.31;98.54
2036;BME280;23642;42.658;23.350;2023-04-03T12:19:53;49902.38;;;-146.31;98.86
2036;BME280;23642;42.658;23.350;2023-04-03T12:22:21;49751.84;;;-146.31;98.78
2036;BME280;23642;42.658;23.350;2023-04-03T12:24:51;49690.00;;;-146.31;98.44
2036;BME280;23642;42.658;23.350;2023-04-03T12:27:30;49591.03;;;-146.31;98.11
2036;BME280;23642;42.658;23.350;2023-04-03T12:30:04;49687.94;;;-146.31;97.53
2036;BME280;23642;42.658;23.350;2023-04-03T12:32:55;49597.19;;;-146.31;98.16
2036;BME280;23642;42.658;23.350;2023-04-03T12:35:28;49506.47;;;-146.31;98.72
2036;BME280;23642;42.658;23.350;2023-04-03T12:41:18;49172.47;;;-146.31;100.00
2036;BME280;23642;42.658;23.350;2023-04-03T12:43:55;49005.50;;;-146.31;100.00
2036;BME280;23642;42.658;23.350;2023-04-03T12:46:32;48914.78;;;-146.31;100.00
2036;BME280;23642;42.658;23.350;2023-04-03T12:49:01;48885.94;;;-146.31;100.00
2036;BME280;23642;42.658;23.350;2023-04-03T12:51:35;48824.09;;;-146.31;100.00
2036;BME280;23642;42.658;23.350;2023-04-03T12:54:13;48782.84;;;-146.31;100.00
2036;BME280;23642;42.658;23.350;2023-04-03T12:56:41;48679.78;;;-146.31;100.00
2036;BME280;23642;42.658;23.350;2023-04-03T12:59:19;48607.66;;;-146.31;100.00
2036;BME280;23642;42.658;23.350;2023-04-03T13:01:54;48438.63;;;-146.31;100.00
2036;BME280;23642;42.658;23.350;2023-04-03T13:04:23;48259.31;;;-146.31;100.00
2036;BME280;23642;42.658;23.350;2023-04-03T13:06:50;48290.22;;;-146.31;100.00
2036;BME280;23642;42.658;23.350;2023-04-03T13:09:23;48255.19;;;-146.31;100.00
2036;BME280;23642;42.658;23.350;2023-04-03T13:11:54;48181.00;;;-146.31;100.00